Aviation Digital Data Service (ADDS)

Output produced by METARs form (0058 UTC 02 March 2015)
found at http://www.aviationweather.gov/adds/metars/
 
KSFO 012326Z 0200/0306 00000KT P6SM FEW030 
     FM020300 29011KT P6SM FEW030 
     FM020600 27006KT P6SM FEW025 
     FM021000 24004KT P6SM FEW010 
     FM021900 28008KT P6SM SCT050 BKN100 
     FM022200 27013KT P6SM SCT040 BKN100